Time;durP1;ratioP1;P1;durP2;ratioP2;P2;SDS_P1;SDS_P2;PMS_P1;PMS_P2;Temp;Humidity;BMP_temperature;BMP_pressure;BME280_temperature;BME280_humidity;BME280_pressure;Samples;Min_cycle;Max_cycle;Signal;HPM_P1;HPM_P2
2022/12/11 00:00:22;;;;;;;1.85;1.20;;;20.70;55.80;;;;;;5038944;28;20115;-70
2022/12/11 00:02:48;;;;;;;1.90;1.40;;;20.70;55.80;;;;;;5052739;28;20033;-70
2022/12/11 00:05:14;;;;;;;1.90;1.20;;;20.70;55.90;;;;;;5050570;28;20095;-69
2022/12/11 00:07:39;;;;;;;2.00;1.40;;;20.70;55.90;;;;;;5037727;28;20032;-69
2022/12/11 00:10:06;;;;;;;2.00;1.20;;;20.70;56.00;;;;;;5053037;28;20029;-69
2022/12/11 00:12:31;;;;;;;1.98;1.30;;;20.60;55.90;;;;;;5054473;28;20021;-69
2022/12/11 00:14:57;;;;;;;1.40;1.10;;;20.60;56.00;;;;;;5051506;28;20480;-69
2022/12/11 00:17:22;;;;;;;2.00;1.42;;;20.60;56.00;;;;;;5042916;28;20021;-69
2022/12/11 00:19:48;;;;;;;2.00;1.20;;;20.60;56.00;;;;;;5054534;28;20116;-69
2022/12/11 00:22:14;;;;;;;2.00;1.30;;;20.60;56.10;;;;;;5055729;28;20554;-69
2022/12/11 00:24:39;;;;;;;1.98;1.20;;;20.50;56.00;;;;;;5054018;28;20519;-68
2022/12/11 00:27:05;;;;;;;1.75;1.10;;;20.50;56.10;;;;;;5058185;28;20028;-69
2022/12/11 00:29:31;;;;;;;1.95;1.10;;;20.50;56.10;;;;;;5056042;28;20081;-68
2022/12/11 00:31:56;;;;;;;2.03;1.33;;;20.50;56.10;;;;;;5044661;28;20013;-68
2022/12/11 00:34:22;;;;;;;1.52;1.13;;;20.50;56.20;;;;;;5036491;28;20032;-69
2022/12/11 00:36:48;;;;;;;2.08;1.38;;;20.50;56.20;;;;;;5059200;28;20025;-68
2022/12/11 00:39:13;;;;;;;1.92;1.33;;;20.40;56.20;;;;;;5046266;28;20405;-69
2022/12/11 00:41:39;;;;;;;1.67;1.20;;;20.40;56.20;;;;;;5045112;28;20026;-69
2022/12/11 00:44:04;;;;;;;2.10;1.40;;;20.40;56.20;;;;;;5052316;28;20056;-68
2022/12/11 00:46:30;;;;;;;1.38;1.15;;;20.40;56.20;;;;;;5045566;28;20029;-68
2022/12/11 00:48:56;;;;;;;1.67;1.20;;;20.30;56.20;;;;;;5051134;28;20060;-68
2022/12/11 00:51:21;;;;;;;2.15;1.20;;;20.40;56.30;;;;;;5055856;28;20029;-68
2022/12/11 00:53:47;;;;;;;2.08;1.33;;;20.40;56.30;;;;;;5058368;28;20029;-68
2022/12/11 00:56:19;;;;;;;1.85;1.20;;;20.30;56.20;;;;;;5038187;28;20059;-69
2022/12/11 00:58:46;;;;;;;2.67;1.30;;;20.30;56.20;;;;;;5039688;28;20115;-69
2022/12/11 01:01:17;;;;;;;1.40;1.10;;;20.30;56.20;;;;;;5046674;28;20036;-68
2022/12/11 01:03:43;;;;;;;1.88;1.20;;;20.30;56.20;;;;;;5045236;28;20119;-68
2022/12/11 01:06:16;;;;;;;1.88;1.40;;;20.30;56.20;;;;;;5049752;28;20089;-67
2022/12/11 01:08:43;;;;;;;1.80;1.30;;;20.20;56.20;;;;;;5053931;28;20025;-68
2022/12/11 01:11:10;;;;;;;1.85;1.23;;;20.20;56.10;;;;;;5053594;28;20433;-68
2022/12/11 01:13:37;;;;;;;1.85;1.20;;;20.20;56.20;;;;;;5041034;28;20028;-68
2022/12/11 01:16:12;;;;;;;2.10;1.40;;;20.20;56.20;;;;;;5051734;28;20556;-68
2022/12/11 01:18:38;;;;;;;1.92;1.20;;;20.20;56.20;;;;;;5047768;28;20107;-67
2022/12/11 01:21:09;;;;;;;2.05;1.30;;;20.20;56.20;;;;;;5045593;28;20120;-68
2022/12/11 01:23:36;;;;;;;1.90;1.27;;;20.10;56.10;;;;;;5055026;28;20033;-68
2022/12/11 01:26:06;;;;;;;1.85;1.17;;;20.10;56.10;;;;;;5052913;28;20530;-69
2022/12/11 01:28:32;;;;;;;1.60;1.20;;;20.10;56.10;;;;;;5053955;28;20031;-68
2022/12/11 01:30:57;;;;;;;1.75;1.20;;;20.10;56.10;;;;;;5051358;28;20033;-68
2022/12/11 01:33:23;;;;;;;1.90;1.38;;;20.10;56.70;;;;;;5036849;28;20448;-68
2022/12/11 01:35:48;;;;;;;1.70;1.20;;;20.10;56.20;;;;;;5036764;28;20029;-68
2022/12/11 01:38:14;;;;;;;2.17;1.30;;;20.10;56.20;;;;;;5048941;28;20036;-69
2022/12/11 01:40:48;;;;;;;1.77;1.17;;;20.00;56.20;;;;;;5055805;28;20400;-69
2022/12/11 01:43:14;;;;;;;1.60;1.20;;;20.00;56.20;;;;;;5048811;28;20377;-69
2022/12/11 01:45:43;;;;;;;1.88;1.30;;;20.00;56.20;;;;;;5047053;28;20056;-67
2022/12/11 01:48:13;;;;;;;1.70;1.27;;;20.00;56.20;;;;;;5050055;28;20040;-69
2022/12/11 01:50:40;;;;;;;;;;;20.00;56.20;;;;;;5050490;28;20523;-67
2022/12/11 01:53:11;;;;;;;1.70;1.15;;;20.00;56.10;;;;;;5028078;28;20375;-68
2022/12/11 01:55:38;;;;;;;1.63;1.10;;;19.90;56.10;;;;;;5046034;28;20014;-68
2022/12/11 01:58:05;;;;;;;1.83;1.13;;;20.00;56.20;;;;;;5051391;28;20492;-67
2022/12/11 02:00:30;;;;;;;1.77;1.30;;;19.90;56.10;;;;;;5048322;28;20036;-68
2022/12/11 02:02:56;;;;;;;2.42;1.20;;;19.90;56.10;;;;;;5056137;28;20073;-67
2022/12/11 02:05:22;;;;;;;1.75;1.25;;;19.90;56.20;;;;;;5064850;28;20106;-68
2022/12/11 02:07:53;;;;;;;2.17;1.30;;;19.90;56.20;;;;;;5042647;28;20040;-68
2022/12/11 02:10:18;;;;;;;1.77;1.20;;;19.90;56.20;;;;;;5036092;28;20140;-68
2022/12/11 02:12:52;;;;;;;1.40;1.20;;;19.90;56.20;;;;;;5053401;28;20104;-68
2022/12/11 02:15:27;;;;;;;1.70;1.17;;;19.90;56.20;;;;;;5028877;28;20029;-69
2022/12/11 02:17:58;;;;;;;2.00;1.30;;;19.90;56.20;;;;;;5053321;28;20114;-69
2022/12/11 02:20:39;;;;;;;1.63;1.20;;;19.80;56.20;;;;;;5048405;28;20017;-68
2022/12/11 02:23:37;;;;;;;1.73;1.20;;;19.80;56.20;;;;;;5051228;28;20053;-69
2022/12/11 02:26:30;;;;;;;1.90;1.20;;;19.80;56.20;;;;;;5048122;28;20116;-69
2022/12/11 02:28:59;;;;;;;1.67;1.20;;;19.80;56.20;;;;;;5056609;28;20530;-70
2022/12/11 02:31:28;;;;;;;1.77;1.30;;;19.80;56.30;;;;;;5052169;28;20520;-69
2022/12/11 02:34:12;;;;;;;1.60;1.15;;;19.80;56.30;;;;;;5054020;28;20120;-68
2022/12/11 02:36:42;;;;;;;1.33;1.10;;;19.80;56.30;;;;;;5055182;28;20388;-69
2022/12/11 02:39:11;;;;;;;2.00;1.17;;;19.80;56.30;;;;;;5048154;28;20483;-69
2022/12/11 02:41:44;;;;;;;2.33;1.23;;;19.80;56.30;;;;;;5053902;28;20540;-69
2022/12/11 02:44:11;;;;;;;1.67;1.15;;;19.80;56.40;;;;;;5046657;28;20036;-69
2022/12/11 02:46:38;;;;;;;1.80;1.20;;;19.70;56.30;;;;;;5050294;28;20029;-69
2022/12/11 02:49:06;;;;;;;1.45;1.02;;;19.70;56.30;;;;;;5053292;28;20032;-69
2022/12/11 02:51:37;;;;;;;2.00;1.10;;;19.70;56.30;;;;;;5062763;28;20056;-69
2022/12/11 02:54:07;;;;;;;1.63;1.13;;;19.70;56.40;;;;;;5049141;28;20388;-68
2022/12/11 02:56:43;;;;;;;1.52;1.05;;;19.70;56.40;;;;;;5035837;28;20017;-69
2022/12/11 02:59:17;;;;;;;1.45;1.10;;;19.70;56.40;;;;;;5055583;28;20021;-68
2022/12/11 03:01:44;;;;;;;1.70;1.20;;;19.70;56.40;;;;;;5055118;28;20038;-67
2022/12/11 03:04:10;;;;;;;1.17;1.00;;;19.70;56.40;;;;;;5048354;28;20384;-68
2022/12/11 03:06:41;;;;;;;1.92;1.20;;;19.70;56.40;;;;;;5061917;28;20083;-67
2022/12/11 03:09:07;;;;;;;1.65;1.02;;;19.60;56.40;;;;;;5053875;28;20112;-67
2022/12/11 03:11:32;;;;;;;1.63;1.08;;;19.60;56.40;;;;;;5056104;28;20123;-67
2022/12/11 03:14:01;;;;;;;1.63;1.08;;;19.60;56.50;;;;;;5051950;28;20096;-68
2022/12/11 03:16:41;;;;;;;1.48;1.10;;;19.60;56.50;;;;;;5056517;28;20040;-68
2022/12/11 03:19:15;;;;;;;1.30;1.00;;;19.60;56.50;;;;;;5058650;28;20029;-68
2022/12/11 03:21:49;;;;;;;1.17;0.98;;;19.60;56.50;;;;;;5057719;28;20044;-67
2022/12/11 03:24:32;;;;;;;1.55;1.00;;;19.60;56.60;;;;;;5058915;28;20079;-68
2022/12/11 03:27:05;;;;;;;1.80;1.20;;;19.60;56.60;;;;;;5050043;28;20032;-68
2022/12/11 03:29:36;;;;;;;1.60;1.00;;;19.60;56.60;;;;;;5050186;28;20766;-68
2022/12/11 03:32:12;;;;;;;1.35;1.00;;;19.50;56.50;;;;;;5049101;28;20027;-68
2022/12/11 03:34:49;;;;;;;1.38;1.08;;;19.50;56.60;;;;;;5050697;28;20467;-69
2022/12/11 03:37:16;;;;;;;1.83;1.00;;;19.50;56.60;;;;;;5055218;28;20029;-68
2022/12/11 03:39:47;;;;;;;1.42;0.98;;;19.60;56.60;;;;;;5056101;28;20028;-68
2022/12/11 03:42:15;;;;;;;1.52;1.08;;;19.50;56.60;;;;;;5050243;28;20565;-67
2022/12/11 03:44:45;;;;;;;1.02;0.90;;;19.50;56.70;;;;;;5045368;28;20079;-68
2022/12/11 03:47:16;;;;;;;1.25;1.00;;;19.50;56.70;;;;;;5048929;28;20032;-69
2022/12/11 03:49:44;;;;;;;1.38;1.05;;;19.50;56.70;;;;;;5057051;28;20032;-68
2022/12/11 03:52:12;;;;;;;1.88;1.20;;;19.50;56.70;;;;;;5050113;28;20362;-67
2022/12/11 03:54:40;;;;;;;1.45;1.10;;;19.50;56.70;;;;;;5050193;28;20025;-68
2022/12/11 03:57:08;;;;;;;1.77;1.13;;;19.50;56.70;;;;;;5051823;28;20044;-68
2022/12/11 03:59:34;;;;;;;1.23;1.00;;;19.40;56.70;;;;;;5034208;28;20140;-68
2022/12/11 04:02:00;;;;;;;1.13;0.90;;;19.40;56.70;;;;;;5057187;28;20111;-68
2022/12/11 04:04:25;;;;;;;1.23;0.90;;;19.40;56.70;;;;;;5057757;28;20029;-68
2022/12/11 04:06:51;;;;;;;1.80;1.05;;;19.40;56.80;;;;;;5058464;28;20032;-67
2022/12/11 04:09:17;;;;;;;1.30;0.90;;;19.40;56.80;;;;;;5038464;28;20446;-67
2022/12/11 04:11:42;;;;;;;1.10;1.00;;;19.40;56.80;;;;;;5037409;28;20021;-68
2022/12/11 04:16:56;;;;;;;1.30;0.98;;;19.40;56.80;;;;;;5054975;28;20067;-67
2022/12/11 04:24:51;;;;;;;1.27;0.90;;;19.40;56.90;;;;;;5064584;28;20043;-68
2022/12/11 04:27:47;;;;;;;1.73;1.00;;;19.30;56.90;;;;;;5051123;28;20028;-69
2022/12/11 04:30:06;;;;;;;1.40;1.10;;;19.30;56.90;;;;;;5048469;28;20051;-68
2022/12/11 04:32:33;;;;;;;1.25;0.98;;;19.30;56.90;;;;;;5047701;28;20053;-68
2022/12/11 04:34:59;;;;;;;1.73;1.10;;;19.30;56.90;;;;;;5046823;28;20067;-68
2022/12/11 04:37:26;;;;;;;1.25;0.98;;;19.30;57.00;;;;;;5055541;28;20032;-68
2022/12/11 04:39:52;;;;;;;1.70;1.13;;;19.30;57.00;;;;;;5040610;28;20116;-69
2022/12/11 04:42:17;;;;;;;1.42;1.02;;;19.30;57.00;;;;;;5048383;28;20129;-68
2022/12/11 04:44:43;;;;;;;1.55;1.13;;;19.30;57.10;;;;;;5049021;28;20071;-68
2022/12/11 04:47:09;;;;;;;1.45;1.00;;;19.30;57.10;;;;;;5047274;28;20024;-68
2022/12/11 04:49:34;;;;;;;1.48;1.08;;;19.30;57.10;;;;;;5044893;28;20029;-67
2022/12/11 04:52:00;;;;;;;1.80;1.10;;;19.30;57.10;;;;;;5054405;28;20143;-67
2022/12/11 04:54:28;;;;;;;1.30;1.10;;;19.30;57.10;;;;;;5061547;28;20033;-67
2022/12/11 04:56:54;;;;;;;1.17;0.90;;;19.30;57.10;;;;;;5049324;28;20045;-67
2022/12/11 04:59:19;;;;;;;1.70;1.10;;;19.30;57.20;;;;;;5042021;28;20072;-67
2022/12/11 05:01:45;;;;;;;1.88;1.00;;;19.30;57.20;;;;;;5049133;28;20479;-67
2022/12/11 05:04:11;;;;;;;1.80;1.10;;;19.30;57.20;;;;;;5034141;28;20051;-68
2022/12/11 05:06:36;;;;;;;1.02;0.93;;;19.20;57.20;;;;;;5049344;28;20044;-67
2022/12/11 05:09:02;;;;;;;1.60;1.10;;;19.20;57.20;;;;;;5047261;28;20028;-67
2022/12/11 05:11:28;;;;;;;1.30;1.00;;;19.20;57.20;;;;;;5052741;28;20032;-67
2022/12/11 05:13:54;;;;;;;1.40;0.98;;;19.20;57.20;;;;;;5050945;28;20031;-68
2022/12/11 05:16:19;;;;;;;1.50;1.10;;;19.20;57.20;;;;;;5048844;28;20021;-68
2022/12/11 05:18:46;;;;;;;1.65;1.10;;;19.20;57.20;;;;;;5049635;28;20033;-67
2022/12/11 05:21:13;;;;;;;1.42;1.10;;;19.20;57.30;;;;;;5035307;28;20029;-67
2022/12/11 05:23:39;;;;;;;1.33;0.90;;;19.20;57.30;;;;;;5047624;28;20128;-69
2022/12/11 05:26:08;;;;;;;1.00;0.90;;;19.20;57.30;;;;;;5036993;28;20029;-67
2022/12/11 05:28:36;;;;;;;1.52;1.08;;;19.20;57.30;;;;;;5048517;28;20037;-68
2022/12/11 05:31:09;;;;;;;1.42;1.00;;;19.20;57.30;;;;;;5052115;28;20032;-67
2022/12/11 05:33:35;;;;;;;1.17;1.00;;;19.20;57.30;;;;;;5061094;28;20534;-68
2022/12/11 05:36:01;;;;;;;1.60;1.10;;;19.10;57.30;;;;;;5036602;28;20021;-67
2022/12/11 05:38:26;;;;;;;1.30;1.00;;;19.20;57.40;;;;;;5044375;28;20033;-67
2022/12/11 05:40:59;;;;;;;1.15;0.85;;;19.10;57.30;;;;;;5036909;28;20119;-67
2022/12/11 05:43:27;;;;;;;1.10;0.90;;;19.10;57.30;;;;;;5047747;28;20388;-68
2022/12/11 05:45:53;;;;;;;1.40;0.90;;;19.10;57.40;;;;;;5050300;28;20430;-66
2022/12/11 05:48:19;;;;;;;1.30;1.00;;;19.10;57.40;;;;;;5056304;28;20374;-67
2022/12/11 05:50:56;;;;;;;1.17;0.90;;;19.10;57.40;;;;;;5044224;28;20032;-67
2022/12/11 05:53:21;;;;;;;1.48;1.00;;;19.10;57.40;;;;;;5045364;28;20358;-67
2022/12/11 05:55:47;;;;;;;1.13;1.00;;;19.10;57.40;;;;;;5050537;28;20035;-67
2022/12/11 05:58:13;;;;;;;1.30;1.00;;;19.10;57.40;;;;;;5050898;28;20045;-67
2022/12/11 06:00:41;;;;;;;1.08;0.82;;;19.10;57.40;;;;;;5044105;28;20465;-68
2022/12/11 06:03:07;;;;;;;1.00;0.90;;;19.10;57.40;;;;;;5050256;28;20028;-67
2022/12/11 06:05:37;;;;;;;1.00;0.90;;;19.10;57.40;;;;;;5052329;28;20029;-67
2022/12/11 06:08:03;;;;;;;1.20;0.90;;;19.10;57.40;;;;;;5052410;28;20037;-68
2022/12/11 06:10:28;;;;;;;1.17;0.93;;;19.10;57.40;;;;;;5053939;28;20392;-67
2022/12/11 06:12:54;;;;;;;1.60;1.00;;;19.10;58.00;;;;;;5049218;28;20036;-68
2022/12/11 06:15:20;;;;;;;1.38;1.00;;;19.10;57.40;;;;;;5053400;28;20027;-67
2022/12/11 06:17:46;;;;;;;1.15;0.80;;;19.10;57.40;;;;;;5042909;28;20079;-67
2022/12/11 06:20:11;;;;;;;1.17;0.98;;;19.10;57.40;;;;;;5059256;28;20489;-67
2022/12/11 06:22:37;;;;;;;1.33;0.90;;;19.00;57.40;;;;;;5062973;28;20025;-67
2022/12/11 06:25:03;;;;;;;1.35;1.00;;;19.00;57.40;;;;;;5041568;28;20024;-67
2022/12/11 06:27:28;;;;;;;1.13;0.90;;;19.00;57.40;;;;;;5050497;28;20416;-67
2022/12/11 06:29:54;;;;;;;1.20;0.90;;;19.00;57.40;;;;;;5052997;28;20043;-67
2022/12/11 06:32:21;;;;;;;1.20;0.98;;;19.00;57.40;;;;;;5057749;28;20092;-68
2022/12/11 06:34:46;;;;;;;1.02;0.90;;;19.00;57.40;;;;;;5063533;28;20430;-67
2022/12/11 06:37:12;;;;;;;1.20;0.90;;;19.00;57.40;;;;;;5056416;28;20028;-67
2022/12/11 06:39:38;;;;;;;1.20;0.90;;;19.00;57.40;;;;;;5054911;28;20037;-67
2022/12/11 06:42:03;;;;;;;1.15;0.90;;;19.00;57.40;;;;;;5052083;28;20049;-67
2022/12/11 06:44:29;;;;;;;1.15;0.90;;;19.00;57.40;;;;;;5055579;28;20111;-68
2022/12/11 06:46:55;;;;;;;1.48;1.00;;;19.00;57.40;;;;;;5065364;28;20052;-67
2022/12/11 06:49:20;;;;;;;1.20;1.00;;;19.00;57.50;;;;;;5055493;28;20446;-67
2022/12/11 06:51:46;;;;;;;1.35;0.88;;;19.00;57.40;;;;;;5053554;28;20033;-67
2022/12/11 06:54:12;;;;;;;1.20;0.90;;;19.00;57.40;;;;;;5057221;28;20074;-68
2022/12/11 06:56:37;;;;;;;1.17;0.90;;;19.00;57.40;;;;;;5051439;28;20101;-67
2022/12/11 06:59:03;;;;;;;1.27;0.90;;;19.00;57.40;;;;;;5036188;28;20032;-67
2022/12/11 07:01:29;;;;;;;2.03;0.95;;;19.00;57.40;;;;;;5036635;28;20033;-67
2022/12/11 07:03:56;;;;;;;1.20;0.80;;;19.00;57.40;;;;;;5052891;28;20060;-67
2022/12/11 07:06:23;;;;;;;1.00;0.85;;;19.00;57.40;;;;;;5049449;28;20433;-67
2022/12/11 07:08:49;;;;;;;1.20;0.98;;;19.00;57.50;;;;;;5057343;28;20020;-67
2022/12/11 07:11:17;;;;;;;1.75;1.05;;;19.00;57.40;;;;;;5039843;28;20539;-67
2022/12/11 07:13:43;;;;;;;1.20;0.90;;;19.00;57.50;;;;;;5054448;28;20028;-67
2022/12/11 07:16:11;;;;;;;0.98;0.80;;;19.00;57.40;;;;;;5057268;28;20529;-67
2022/12/11 07:18:37;;;;;;;1.23;0.90;;;19.00;57.50;;;;;;5055997;28;20029;-67
2022/12/11 07:21:04;;;;;;;1.10;0.90;;;19.00;57.40;;;;;;5037989;28;20048;-67
2022/12/11 07:23:30;;;;;;;0.90;0.70;;;19.00;57.50;;;;;;5056512;28;20484;-67
2022/12/11 07:25:56;;;;;;;1.00;0.88;;;18.90;57.40;;;;;;5062205;28;20040;-68
2022/12/11 07:28:22;;;;;;;0.95;0.88;;;19.00;57.50;;;;;;5051034;28;20393;-68
2022/12/11 07:30:48;;;;;;;1.42;1.00;;;18.90;57.40;;;;;;5046206;28;20034;-68
2022/12/11 07:33:14;;;;;;;0.88;0.80;;;18.90;57.40;;;;;;5057227;28;20024;-69
2022/12/11 07:35:40;;;;;;;1.38;0.93;;;19.00;57.40;;;;;;5059619;28;20035;-68
2022/12/11 07:38:06;;;;;;;0.93;0.80;;;19.00;57.30;;;;;;5055242;28;20082;-68
2022/12/11 07:40:32;;;;;;;0.90;0.80;;;19.00;57.20;;;;;;5062389;28;20067;-68
2022/12/11 07:42:58;;;;;;;1.38;0.90;;;19.00;57.20;;;;;;5064368;28;20057;-68
2022/12/11 07:45:25;;;;;;;1.40;0.95;;;19.00;57.10;;;;;;5046420;28;20469;-68
2022/12/11 07:47:51;;;;;;;1.35;0.98;;;19.00;57.00;;;;;;5054956;28;20131;-68
2022/12/11 07:50:17;;;;;;;1.10;1.00;;;19.00;57.00;;;;;;5055781;28;20019;-68
2022/12/11 07:52:43;;;;;;;1.73;1.30;;;19.00;56.90;;;;;;5049354;28;20044;-68
2022/12/11 07:55:09;;;;;;;1.65;1.42;;;19.00;56.90;;;;;;5042688;28;20017;-68
2022/12/11 07:57:35;;;;;;;1.75;1.50;;;19.00;56.80;;;;;;5048337;28;20028;-68
2022/12/11 08:00:02;;;;;;;2.13;1.67;;;19.00;56.80;;;;;;5046407;28;20029;-68
2022/12/11 08:02:28;;;;;;;2.20;2.00;;;19.00;56.80;;;;;;5045773;28;20087;-66
2022/12/11 08:04:54;;;;;;;2.55;2.20;;;19.00;56.80;;;;;;5050447;28;20502;-68
2022/12/11 08:07:19;;;;;;;2.28;1.88;;;19.00;56.80;;;;;;5055355;28;20387;-68
2022/12/11 08:09:45;;;;;;;2.00;1.63;;;19.00;56.90;;;;;;5052460;28;20033;-68
2022/12/11 08:12:12;;;;;;;2.10;1.70;;;19.00;57.00;;;;;;5055401;28;20025;-67
2022/12/11 08:14:37;;;;;;;1.92;1.60;;;19.00;57.00;;;;;;5053530;28;20030;-67
2022/12/11 08:17:03;;;;;;;2.33;1.90;;;19.00;57.00;;;;;;5035079;28;20545;-67
2022/12/11 08:19:29;;;;;;;2.53;2.05;;;19.00;57.00;;;;;;5047341;28;20400;-68
2022/12/11 08:21:54;;;;;;;2.08;1.80;;;19.00;57.00;;;;;;5051733;28;20044;-68
2022/12/11 08:24:20;;;;;;;2.17;1.80;;;19.00;57.00;;;;;;5051960;28;20040;-68
2022/12/11 08:26:46;;;;;;;2.25;1.73;;;19.00;57.10;;;;;;5047915;28;20454;-68
2022/12/11 08:29:12;;;;;;;2.30;1.90;;;19.00;57.50;;;;;;5044767;28;20384;-68
2022/12/11 08:31:39;;;;;;;2.20;1.80;;;19.00;57.10;;;;;;5036448;28;20036;-68
2022/12/11 08:34:05;;;;;;;3.60;1.80;;;19.00;57.10;;;;;;5055251;28;20431;-68
2022/12/11 08:36:30;;;;;;;2.58;1.90;;;19.00;57.10;;;;;;5061891;28;20085;-68
2022/12/11 08:38:56;;;;;;;2.42;1.75;;;19.00;57.10;;;;;;5060694;28;20033;-68
2022/12/11 08:41:24;;;;;;;2.65;2.00;;;19.00;57.10;;;;;;5055209;28;20029;-67
2022/12/11 08:43:53;;;;;;;3.22;1.80;;;19.00;57.10;;;;;;5058100;28;20029;-68
2022/12/11 08:46:22;;;;;;;2.08;1.80;;;19.00;57.10;;;;;;5049375;28;20025;-68
2022/12/11 08:48:48;;;;;;;2.47;1.70;;;19.00;57.10;;;;;;5035308;28;20029;-68
2022/12/11 08:51:16;;;;;;;2.03;1.58;;;19.00;57.10;;;;;;5036731;28;20472;-67
2022/12/11 08:53:43;;;;;;;2.47;2.00;;;19.00;57.10;;;;;;5049656;28;20029;-67
2022/12/11 08:56:18;;;;;;;2.33;1.70;;;19.00;57.20;;;;;;5052378;28;20265;-68
2022/12/11 08:58:44;;;;;;;2.08;1.50;;;19.00;57.20;;;;;;5050664;28;20026;-68
2022/12/11 09:01:16;;;;;;;2.25;1.63;;;19.00;57.20;;;;;;5058419;28;20551;-68
2022/12/11 09:03:42;;;;;;;2.28;1.45;;;19.00;57.20;;;;;;5055267;28;20579;-68
2022/12/11 09:06:11;;;;;;;1.90;1.20;;;19.00;57.20;;;;;;5041353;28;20024;-68
2022/12/11 09:08:37;;;;;;;2.85;1.60;;;19.10;57.40;;;;;;5048806;28;20112;-68
2022/12/11 09:11:07;;;;;;;2.03;1.50;;;19.10;57.30;;;;;;5049696;28;20088;-68
2022/12/11 09:13:33;;;;;;;2.08;1.55;;;19.10;57.30;;;;;;5046817;28;20472;-69
2022/12/11 09:15:59;;;;;;;2.08;1.40;;;19.10;57.30;;;;;;5049259;28;20090;-69
2022/12/11 09:18:24;;;;;;;2.40;1.60;;;19.10;57.30;;;;;;5049795;28;20449;-69
2022/12/11 09:21:07;;;;;;;1.73;1.30;;;19.10;57.30;;;;;;5037768;28;20105;-69
2022/12/11 09:23:33;;;;;;;2.30;1.42;;;19.10;57.40;;;;;;5050933;28;20400;-69
2022/12/11 09:26:04;;;;;;;1.98;1.50;;;19.10;57.40;;;;;;5035017;28;20025;-68
2022/12/11 09:28:30;;;;;;;2.03;1.48;;;19.10;57.40;;;;;;5046719;28;20025;-69
2022/12/11 09:30:55;;;;;;;1.63;1.35;;;19.10;57.40;;;;;;5044861;28;20056;-68
2022/12/11 09:33:21;;;;;;;2.15;1.50;;;19.10;57.40;;;;;;5040614;28;20021;-68
2022/12/11 09:35:56;;;;;;;2.17;1.48;;;19.20;57.50;;;;;;5052446;28;20052;-69
2022/12/11 09:38:22;;;;;;;2.00;1.55;;;19.20;57.90;;;;;;5047657;28;20031;-68
2022/12/11 09:40:48;;;;;;;2.83;1.23;;;19.30;57.90;;;;;;5045631;28;20104;-68
2022/12/11 09:43:36;;;;;;;1.90;1.30;;;19.30;57.60;;;;;;5050056;28;20058;-68
2022/12/11 09:46:06;;;;;;;1.95;1.30;;;19.50;57.70;;;;;;5055663;28;20047;-67
2022/12/11 09:48:32;;;;;;;;;;;19.50;57.40;;;;;;5055670;28;20476;-68
2022/12/11 09:51:04;;;;;;;1.50;1.05;;;19.60;57.40;;;;;;5056901;28;20261;-68
2022/12/11 09:53:34;;;;;;;1.27;1.00;;;19.70;57.20;;;;;;5044095;28;20045;-68
2022/12/11 09:56:03;;;;;;;1.20;0.93;;;19.80;57.10;;;;;;5044732;28;20026;-67
2022/12/11 09:58:44;;;;;;;1.83;1.10;;;19.80;57.00;;;;;;5045103;28;20496;-69
2022/12/11 10:01:37;;;;;;;1.50;1.00;;;19.90;56.90;;;;;;5045831;28;20048;-69
2022/12/11 10:04:39;;;;;;;2.00;1.23;;;20.00;56.70;;;;;;5050754;28;20036;-69
2022/12/11 10:07:17;;;;;;;2.53;1.30;;;20.20;56.40;;;;;;5046500;28;20029;-69
2022/12/11 10:09:57;;;;;;;2.35;1.65;;;20.30;56.20;;;;;;5045698;28;20544;-69
2022/12/11 10:12:41;;;;;;;1.73;1.27;;;20.40;56.00;;;;;;5045963;28;20075;-68
2022/12/11 10:15:24;;;;;;;1.63;1.20;;;20.50;55.70;;;;;;5054291;28;20025;-68
2022/12/11 10:17:52;;;;;;;1.90;1.20;;;20.60;55.40;;;;;;5050119;28;20020;-68
2022/12/11 10:20:35;;;;;;;1.73;1.20;;;20.70;55.40;;;;;;5047832;28;20388;-70
2022/12/11 10:23:02;;;;;;;2.30;1.10;;;20.70;55.20;;;;;;5049069;28;20445;-68
2022/12/11 10:25:39;;;;;;;2.15;1.33;;;20.80;55.10;;;;;;5044680;28;20395;-69
2022/12/11 10:28:17;;;;;;;1.95;1.50;;;20.80;54.90;;;;;;5031824;28;20083;-69
2022/12/11 10:31:10;;;;;;;2.42;1.48;;;20.90;54.70;;;;;;5045924;28;20028;-69
2022/12/11 10:33:44;;;;;;;2.17;1.40;;;21.00;54.50;;;;;;5045953;28;20033;-69
2022/12/11 10:36:15;;;;;;;2.05;1.23;;;21.10;54.40;;;;;;5059950;28;20406;-68
2022/12/11 10:38:44;;;;;;;2.20;1.50;;;21.20;54.30;;;;;;5042935;28;20031;-69
2022/12/11 10:41:12;;;;;;;2.22;1.40;;;21.20;54.10;;;;;;5056422;28;20393;-68
2022/12/11 10:43:38;;;;;;;2.17;1.30;;;21.30;54.10;;;;;;5051561;28;20120;-69
2022/12/11 10:46:11;;;;;;;2.42;1.38;;;21.30;54.10;;;;;;5054436;28;20455;-69
2022/12/11 10:48:45;;;;;;;2.00;1.35;;;21.30;54.10;;;;;;5045715;28;20030;-69
2022/12/11 10:51:11;;;;;;;2.38;1.25;;;21.20;54.00;;;;;;5036639;28;20021;-69
2022/12/11 10:53:39;;;;;;;1.83;1.30;;;21.20;54.20;;;;;;5060961;28;20037;-69
2022/12/11 10:56:05;;;;;;;1.98;1.30;;;21.10;54.30;;;;;;5055446;28;20328;-69
2022/12/11 10:58:33;;;;;;;2.28;1.25;;;21.10;54.40;;;;;;5050391;28;20043;-69
2022/12/11 11:01:12;;;;;;;2.22;1.30;;;21.00;54.50;;;;;;5059613;28;20028;-68
2022/12/11 11:04:03;;;;;;;1.75;1.20;;;21.00;54.50;;;;;;5056335;28;20428;-69
2022/12/11 11:06:29;;;;;;;1.95;1.40;;;21.00;54.60;;;;;;5049450;28;20037;-69
2022/12/11 11:08:57;;;;;;;2.13;1.40;;;20.90;54.60;;;;;;5047086;28;20537;-70
2022/12/11 11:11:23;;;;;;;1.85;1.20;;;20.90;54.70;;;;;;5056472;28;20126;-69
2022/12/11 11:13:49;;;;;;;2.53;1.40;;;20.90;54.80;;;;;;5059282;28;20029;-68
2022/12/11 11:16:18;;;;;;;3.38;1.40;;;20.90;54.70;;;;;;5057670;28;20487;-69
2022/12/11 11:18:54;;;;;;;2.50;1.40;;;21.00;54.70;;;;;;5063709;28;20036;-68
2022/12/11 11:21:24;;;;;;;2.30;1.42;;;21.00;54.60;;;;;;5044472;28;20160;-69
2022/12/11 11:23:51;;;;;;;2.00;1.40;;;21.00;54.50;;;;;;5044423;28;20035;-69
2022/12/11 11:26:18;;;;;;;2.35;1.40;;;21.00;54.50;;;;;;5054719;28;20036;-69
2022/12/11 11:28:48;;;;;;;3.25;1.30;;;21.00;54.60;;;;;;5047366;28;20033;-69
2022/12/11 11:31:16;;;;;;;2.22;1.30;;;21.00;55.10;;;;;;5057931;28;20471;-69
2022/12/11 11:33:56;;;;;;;3.95;1.40;;;21.00;54.50;;;;;;5058358;28;20557;-68
2022/12/11 11:36:25;;;;;;;1.63;1.23;;;21.00;54.50;;;;;;5051455;28;20039;-68
2022/12/11 11:39:16;;;;;;;3.40;1.45;;;21.00;54.50;;;;;;5056605;28;20029;-70
2022/12/11 11:42:08;;;;;;;3.78;1.60;;;21.10;54.50;;;;;;5053078;28;20502;-69
2022/12/11 11:44:38;;;;;;;2.22;1.38;;;21.10;54.40;;;;;;5045793;28;20130;-69
2022/12/11 11:47:10;;;;;;;3.05;1.50;;;21.10;54.30;;;;;;5045425;28;20025;-70
2022/12/11 11:50:04;;;;;;;2.90;1.40;;;21.10;54.30;;;;;;5054279;28;20452;-69
2022/12/11 11:52:45;;;;;;;3.10;1.60;;;21.10;54.30;;;;;;5055905;28;20039;-69
2022/12/11 11:55:25;;;;;;;2.67;1.30;;;21.10;54.10;;;;;;5061864;28;20051;-69
2022/12/11 11:58:01;;;;;;;4.47;1.63;;;21.10;54.20;;;;;;5049633;28;20036;-70
2022/12/11 12:00:29;;;;;;;2.10;1.40;;;21.20;54.20;;;;;;5044093;28;20488;-68
2022/12/11 12:02:58;;;;;;;2.10;1.30;;;21.20;54.20;;;;;;5035427;28;20078;-69
2022/12/11 12:05:38;;;;;;;2.60;1.40;;;21.20;54.10;;;;;;5052795;28;20031;-69
2022/12/11 12:08:13;;;;;;;3.15;1.50;;;21.20;54.20;;;;;;5054999;28;20032;-69
2022/12/11 12:10:58;;;;;;;2.85;1.50;;;21.20;54.20;;;;;;5051409;28;20112;-68
2022/12/11 12:13:35;;;;;;;2.67;1.50;;;21.20;54.30;;;;;;5030168;28;20049;-69
2022/12/11 12:16:01;;;;;;;2.60;1.30;;;21.20;54.20;;;;;;5050665;28;20032;-69
2022/12/11 12:18:26;;;;;;;3.03;1.40;;;21.20;54.20;;;;;;5042586;28;20727;-69
2022/12/11 12:21:25;;;;;;;2.78;1.30;;;21.20;54.20;;;;;;5048104;28;20383;-68
2022/12/11 12:24:12;;;;;;;2.33;1.40;;;21.20;54.20;;;;;;5058054;28;20485;-68
2022/12/11 12:26:42;;;;;;;2.10;1.40;;;21.20;54.20;;;;;;5051432;28;20427;-68
2022/12/11 12:29:23;;;;;;;2.65;1.20;;;21.10;54.10;;;;;;5049630;28;20491;-68
2022/12/11 12:32:11;;;;;;;1.95;1.20;;;21.10;54.00;;;;;;5055109;28;20021;-69
2022/12/11 12:35:05;;;;;;;2.33;1.33;;;21.10;54.10;;;;;;5049420;28;20025;-68
2022/12/11 12:37:45;;;;;;;2.20;1.40;;;21.10;54.10;;;;;;5033976;28;20554;-67
2022/12/11 12:40:19;;;;;;;1.83;1.40;;;21.10;54.10;;;;;;5045443;28;20033;-68
2022/12/11 12:43:13;;;;;;;3.58;1.40;;;21.10;54.10;;;;;;5043188;28;20028;-68
2022/12/11 12:45:50;;;;;;;2.97;1.50;;;21.10;54.10;;;;;;5047821;28;20388;-68
2022/12/11 12:48:16;;;;;;;1.92;1.20;;;21.10;54.20;;;;;;5055651;28;20043;-67
2022/12/11 12:50:47;;;;;;;1.83;1.20;;;21.00;54.10;;;;;;5053627;28;20490;-68
2022/12/11 12:53:18;;;;;;;1.80;1.20;;;21.00;54.40;;;;;;5033236;28;20028;-67
2022/12/11 12:55:45;;;;;;;2.10;1.10;;;21.00;54.30;;;;;;5046163;28;20018;-67
2022/12/11 12:58:44;;;;;;;1.95;1.30;;;21.00;54.30;;;;;;5028242;28;20036;-67
2022/12/11 13:01:15;;;;;;;2.25;1.38;;;21.00;54.30;;;;;;5002254;28;20429;-68
2022/12/11 13:03:55;;;;;;;1.83;1.10;;;20.90;54.30;;;;;;5050440;28;20021;-68
2022/12/11 13:06:41;;;;;;;1.77;1.10;;;20.90;54.30;;;;;;5042311;28;20021;-67
2022/12/11 13:09:12;;;;;;;3.38;1.20;;;20.90;54.40;;;;;;5042638;28;20039;-68